^^
Refsnesbakken Borettslag Station Historical Data
 
Daily Summary for May 08, 2026 Units:  Metric    English   Both
Daily Weekly Monthly Yearly
  Current: High: Low: Average:
Temperature: 10.1 °C 10.8 °C 4.5 °C 6.6 °C
Dew Point: 6.3 °C 6.3 °C 0.3 °C 2.9 °C
Humidity: 77.5% 89% 61% 78%
Wind Speed: 7km/h 9.3km/h 5.6km/h 6.6km/h
Wind Gust: 7.4km/h 9.7km/h - -
WindSouth - - SE
Pressure: 1026.1 hPa 1026.1 hPa 1022.5 hPa -
Precipitation: 0.0 mm      
 
 
Tabular Data for May 08, 2026
Time Temperature Dew Point Pressure Wind Wind Speed Wind Gust Humidity Rainfall Rate (Hourly) solar
00:09 7.3 °C 0.3 °C 1022.5 hPa SSW 9.3 km/h 9.7 km/h 61% 0.0 mm 0 W/m2
00:14 7.1 °C 0.8 °C 1022.5 hPa SSW 9.3 km/h 9.7 km/h 64.4% 0.0 mm 0 W/m2
00:19 6.9 °C 1.1 °C 1022.5 hPa SSW 9.3 km/h 9.7 km/h 66.6% 0.0 mm 0 W/m2
00:24 6.8 °C 1.1 °C 1022.5 hPa SSW 9.3 km/h 9.7 km/h 67% 0.0 mm 0 W/m2
00:29 6.8 °C 1 °C 1022.6 hPa SSW 9.3 km/h 9.7 km/h 66.8% 0.0 mm 0 W/m2
00:34 6.7 °C 0.8 °C 1022.7 hPa South 8.5 km/h 9.7 km/h 66% 0.0 mm 0 W/m2
00:39 6.7 °C 0.8 °C 1022.6 hPa South 7.4 km/h 9.7 km/h 66% 0.0 mm 0 W/m2
00:44 6.7 °C 0.7 °C 1022.7 hPa South 7.4 km/h 8 km/h 65.7% 0.0 mm 0 W/m2
00:49 6.8 °C 0.7 °C 1022.7 hPa South 7.4 km/h 8 km/h 65% 0.0 mm 0 W/m2
00:54 7 °C 0.6 °C 1022.6 hPa South 7.4 km/h 8 km/h 63.9% 0.0 mm 0 W/m2
00:59 7 °C 0.7 °C 1022.6 hPa South 7.4 km/h 8 km/h 64% 0.0 mm 0 W/m2
01:04 7 °C 0.8 °C 1022.7 hPa SE 7.4 km/h 8 km/h 64.9% 0.0 mm 0 W/m2
01:09 6.9 °C 0.8 °C 1022.7 hPa ESE 7.4 km/h 8 km/h 65% 0.0 mm 0 W/m2
01:14 7 °C 0.7 °C 1022.7 hPa ESE 7.4 km/h 8 km/h 64% 0.0 mm 0 W/m2
01:19 7.2 °C 0.8 °C 1022.7 hPa ESE 7.4 km/h 8 km/h 64% 0.0 mm 0 W/m2
01:24 7.5 °C 1.1 °C 1022.7 hPa ESE 7.4 km/h 8 km/h 64% 0.0 mm 0 W/m2
01:29 7.6 °C 1.3 °C 1022.7 hPa ESE 7.4 km/h 8 km/h 64% 0.0 mm 0 W/m2
01:34 7.6 °C 1.3 °C 1022.7 hPa SE 7.4 km/h 8 km/h 64% 0.0 mm 0 W/m2
01:39 7.5 °C 1.3 °C 1022.8 hPa SE 7.4 km/h 8 km/h 64.8% 0.0 mm 0 W/m2
01:44 7.2 °C 1.3 °C 1022.8 hPa SE 7.4 km/h 8 km/h 65.9% 0.0 mm 0 W/m2
01:49 7 °C 1.4 °C 1022.9 hPa SE 7.4 km/h 8 km/h 67.3% 0.0 mm 0 W/m2
01:54 6.9 °C 1.5 °C 1023.0 hPa SE 7.4 km/h 8 km/h 68.3% 0.0 mm 0 W/m2
01:59 6.8 °C 1.7 °C 1023.0 hPa SE 7.4 km/h 8 km/h 69.7% 0.0 mm 0 W/m2
02:04 6.8 °C 1.9 °C 1023.0 hPa SE 6.7 km/h 8 km/h 71% 0.0 mm 0 W/m2
02:09 6.6 °C 1.9 °C 1023.0 hPa ESE 5.6 km/h 8 km/h 71.8% 0.0 mm 0 W/m2
02:14 6.6 °C 1.9 °C 1023.0 hPa ESE 5.6 km/h 5.6 km/h 72% 0.0 mm 0 W/m2
02:19 6.5 °C 1.8 °C 1023.1 hPa ESE 5.6 km/h 5.6 km/h 72% 0.0 mm 0 W/m2
02:24 6.4 °C 1.7 °C 1023.2 hPa ESE 5.6 km/h 5.6 km/h 72.2% 0.0 mm 0 W/m2
02:29 6.3 °C 1.7 °C 1023.2 hPa ESE 5.6 km/h 5.6 km/h 72.4% 0.0 mm 0 W/m2
02:34 6.3 °C 1.6 °C 1023.2 hPa ESE 7 km/h 7.4 km/h 72.3% 0.0 mm 0 W/m2
02:39 6.2 °C 1.6 °C 1023.2 hPa ESE 7.4 km/h 8 km/h 72.3% 0.0 mm 0 W/m2
02:44 6.1 °C 1.6 °C 1023.3 hPa ESE 7.4 km/h 8 km/h 72.6% 0.0 mm 0 W/m2
02:49 6 °C 1.4 °C 1023.3 hPa ESE 7.4 km/h 8 km/h 72.6% 0.0 mm 0 W/m2
02:54 5.8 °C 1.3 °C 1023.3 hPa ESE 7.4 km/h 8 km/h 72.4% 0.0 mm 0 W/m2
02:59 5.7 °C 1.2 °C 1023.3 hPa ESE 7.4 km/h 8 km/h 73% 0.0 mm 0 W/m2
03:04 5.4 °C 1 °C 1023.4 hPa East 6.7 km/h 8 km/h 73.3% 0.0 mm 0 W/m2
03:09 5.2 °C 1 °C 1023.4 hPa East 5.6 km/h 8 km/h 74.2% 0.0 mm 0 W/m2
03:14 5 °C 0.9 °C 1023.5 hPa East 5.6 km/h 5.6 km/h 74.9% 0.0 mm 0 W/m2
03:19 4.9 °C 1 °C 1023.5 hPa East 5.6 km/h 5.6 km/h 75.9% 0.0 mm 0 W/m2
03:24 4.9 °C 1.1 °C 1023.6 hPa East 5.6 km/h 5.6 km/h 76.6% 0.0 mm 0 W/m2
03:29 5 °C 1.2 °C 1023.6 hPa East 5.6 km/h 5.6 km/h 77% 0.0 mm 0 W/m2
03:34 5 °C 1.4 °C 1023.7 hPa ESE 5.6 km/h 5.6 km/h 77.1% 0.0 mm 0 W/m2
03:39 5.2 °C 1.7 °C 1023.7 hPa ESE 5.6 km/h 5.6 km/h 78% 0.0 mm 0 W/m2
03:44 5.3 °C 1.8 °C 1023.7 hPa ESE 5.6 km/h 5.6 km/h 78% 0.0 mm 0 W/m2
03:49 5.1 °C 1.8 °C 1023.7 hPa ESE 5.6 km/h 5.6 km/h 79.1% 0.0 mm 0 W/m2
03:54 5 °C 1.8 °C 1023.7 hPa ESE 5.6 km/h 5.6 km/h 80% 0.0 mm 0 W/m2
03:59 5 °C 1.8 °C 1023.7 hPa ESE 5.6 km/h 5.6 km/h 80% 0.0 mm 0 W/m2
04:04 5 °C 1.9 °C 1023.7 hPa SE 7 km/h 7.4 km/h 80% 0.0 mm 0 W/m2
04:09 5.1 °C 2 °C 1023.7 hPa SSE 7.4 km/h 8 km/h 80% 0.0 mm 0 W/m2
04:14 5.2 °C 2.1 °C 1023.7 hPa SSE 7.4 km/h 8 km/h 80% 0.0 mm 0 W/m2
04:19 5.3 °C 2.1 °C 1023.8 hPa SSE 7.4 km/h 8 km/h 79.9% 0.0 mm 0 W/m2
04:24 5.3 °C 2 °C 1023.8 hPa SSE 7.4 km/h 8 km/h 79% 0.0 mm 0 W/m2
04:29 5.3 °C 1.8 °C 1024.1 hPa SSE 7.4 km/h 8 km/h 78.3% 0.0 mm 0 W/m2
04:34 5.2 °C 1.7 °C 1024.2 hPa SE 6.7 km/h 8 km/h 78% 0.0 mm 0 W/m2
04:39 5.1 °C 1.7 °C 1024.2 hPa ESE 5.6 km/h 8 km/h 78.7% 0.0 mm 0 W/m2
04:44 4.9 °C 1.7 °C 1024.1 hPa ESE 5.6 km/h 5.6 km/h 79.5% 0.0 mm 0 W/m2
04:49 4.8 °C 1.7 °C 1024.2 hPa ESE 5.6 km/h 5.6 km/h 80.3% 0.0 mm 0 W/m2
04:54 4.7 °C 1.7 °C 1024.2 hPa ESE 5.6 km/h 5.6 km/h 81% 0.0 mm 0 W/m2
04:59 4.6 °C 1.6 °C 1024.3 hPa ESE 5.6 km/h 5.6 km/h 81.1% 0.0 mm 0 W/m2
05:04 4.5 °C 1.6 °C 1024.3 hPa East 5.6 km/h 5.6 km/h 82% 0.0 mm 0 W/m2
05:09 4.5 °C 1.9 °C 1024.3 hPa East 5.6 km/h 5.6 km/h 83.1% 0.0 mm 0 W/m2
05:14 4.5 °C 2.1 °C 1024.4 hPa East 5.6 km/h 5.6 km/h 84% 0.0 mm 0 W/m2
05:19 4.6 °C 2.2 °C 1024.3 hPa East 5.6 km/h 5.6 km/h 84.7% 0.0 mm 0 W/m2
05:24 4.7 °C 2.3 °C 1024.4 hPa East 5.6 km/h 5.6 km/h 85% 0.0 mm 0 W/m2
05:29 4.7 °C 2.3 °C 1024.4 hPa East 5.6 km/h 5.6 km/h 85% 0.0 mm 0 W/m2
05:34 4.6 °C 2.3 °C 1024.4 hPa ESE 5.6 km/h 5.6 km/h 85% 0.0 mm 0 W/m2
05:39 4.6 °C 2.3 °C 1024.5 hPa ESE 5.6 km/h 5.6 km/h 85.4% 0.0 mm 0 W/m2
05:44 4.6 °C 2.4 °C 1024.5 hPa ESE 5.6 km/h 5.6 km/h 86% 0.0 mm 0 W/m2
05:49 4.5 °C 2.4 °C 1024.5 hPa ESE 5.6 km/h 5.6 km/h 86% 0.0 mm 0 W/m2
05:54 4.5 °C 2.5 °C 1024.5 hPa ESE 5.6 km/h 5.6 km/h 87% 0.0 mm 0 W/m2
05:59 4.5 °C 2.5 °C 1024.6 hPa ESE 5.6 km/h 5.6 km/h 87% 0.0 mm 0 W/m2
06:04 4.5 °C 2.6 °C 1024.7 hPa ESE 7 km/h 7.4 km/h 87.1% 0.0 mm 0 W/m2
06:09 4.6 °C 2.7 °C 1024.6 hPa ESE 7.4 km/h 8 km/h 88% 0.0 mm 0 W/m2
06:14 4.6 °C 2.7 °C 1024.6 hPa ESE 7.4 km/h 8 km/h 88% 0.0 mm 0 W/m2
06:19 4.6 °C 2.7 °C 1024.7 hPa ESE 7.4 km/h 8 km/h 88% 0.0 mm 0 W/m2
06:24 4.6 °C 2.7 °C 1024.8 hPa ESE 7.4 km/h 8 km/h 88% 0.0 mm 0 W/m2
06:29 4.6 °C 2.8 °C 1024.8 hPa ESE 7.4 km/h 8 km/h 88% 0.0 mm 0 W/m2
06:34 4.6 °C 2.8 °C 1024.9 hPa ESE 6.7 km/h 8 km/h 88% 0.0 mm 0 W/m2
06:39 4.7 °C 3 °C 1025.0 hPa East 5.6 km/h 8 km/h 89% 0.0 mm 0 W/m2
06:44 4.7 °C 3 °C 1024.9 hPa East 5.6 km/h 5.6 km/h 89% 0.0 mm 0 W/m2
06:49 4.7 °C 3.1 °C 1025.0 hPa East 5.6 km/h 5.6 km/h 89% 0.0 mm 0 W/m2
06:54 4.8 °C 3.1 °C 1025.0 hPa East 5.6 km/h 5.6 km/h 89% 0.0 mm 0 W/m2
06:59 4.9 °C 3.3 °C 1025.0 hPa East 5.6 km/h 5.6 km/h 89% 0.0 mm 0 W/m2
07:04 5.1 °C 3.4 °C 1025.0 hPa East 5.6 km/h 5.6 km/h 89% 0.0 mm 0 W/m2
07:09 5.3 °C 3.7 °C 1024.9 hPa East 5.6 km/h 5.6 km/h 89% 0.0 mm 0 W/m2
07:14 5.6 °C 4 °C 1024.9 hPa East 5.6 km/h 5.6 km/h 89% 0.0 mm 0 W/m2
07:19 5.9 °C 4.3 °C 1024.9 hPa East 5.6 km/h 5.6 km/h 89% 0.0 mm 0 W/m2
07:24 6.5 °C 4.8 °C 1025.0 hPa East 5.6 km/h 5.6 km/h 89% 0.0 mm 0 W/m2
07:29 7.1 °C 5.3 °C 1025.0 hPa East 5.6 km/h 5.6 km/h 88.3% 0.0 mm 0 W/m2
07:34 7.6 °C 5.6 °C 1025.1 hPa East 5.6 km/h 5.6 km/h 87.3% 0.0 mm 0 W/m2
07:39 7.9 °C 5.6 °C 1025.1 hPa East 5.6 km/h 5.6 km/h 85.3% 0.0 mm 0 W/m2
07:44 8.3 °C 5.5 °C 1025.1 hPa East 5.6 km/h 5.6 km/h 82.4% 0.0 mm 0 W/m2
07:49 8.7 °C 5.6 °C 1025.1 hPa East 5.6 km/h 5.6 km/h 81% 0.0 mm 0 W/m2
07:54 9.2 °C 5.7 °C 1025.1 hPa East 5.6 km/h 5.6 km/h 78.8% 0.0 mm 0 W/m2
07:59 9.4 °C 5.6 °C 1025.2 hPa East 5.6 km/h 5.6 km/h 76.9% 0.0 mm 0 W/m2
08:04 9.7 °C 5.4 °C 1025.2 hPa East 5.6 km/h 5.6 km/h 74.5% 0.0 mm 0 W/m2
08:09 9.8 °C 5.3 °C 1025.3 hPa East 5.6 km/h 5.6 km/h 73.7% 0.0 mm 0 W/m2
08:14 9.8 °C 5.2 °C 1025.3 hPa East 5.6 km/h 5.6 km/h 72.6% 0.0 mm 0 W/m2
08:19 9.8 °C 5 °C 1025.3 hPa East 5.6 km/h 5.6 km/h 71.9% 0.0 mm 0 W/m2
08:24 9.9 °C 5.2 °C 1025.3 hPa East 5.6 km/h 5.6 km/h 72.6% 0.0 mm 0 W/m2
08:29 10.2 °C 5.5 °C 1025.3 hPa East 5.6 km/h 5.6 km/h 72.4% 0.0 mm 0 W/m2
08:34 10.4 °C 5.3 °C 1025.4 hPa SE 7 km/h 7.4 km/h 71% 0.0 mm 0 W/m2
08:39 10.6 °C 5.6 °C 1025.4 hPa SE 7.4 km/h 8 km/h 71% 0.0 mm 0 W/m2
08:44 10.8 °C 5.8 °C 1025.5 hPa SE 7.4 km/h 8 km/h 71.1% 0.0 mm 0 W/m2
08:49 10.8 °C 5.4 °C 1025.5 hPa SE 7.4 km/h 8 km/h 69.5% 0.0 mm 0 W/m2
08:54 6.5 °C 4.1 °C 1025.5 hPa SE 7.4 km/h 8 km/h 84.8% 0.0 mm 135 W/m2
08:59 6.5 °C 4.3 °C 1025.6 hPa SE 7.4 km/h 8 km/h 86% 0.0 mm 163 W/m2
09:04 6.7 °C 4.5 °C 1025.6 hPa SE 8.9 km/h 9.3 km/h 85.8% 0.0 mm 156 W/m2
09:09 6.9 °C 4.5 °C 1025.7 hPa SE 9.3 km/h 9.7 km/h 84.6% 0.0 mm 141 W/m2
09:14 7 °C 4.5 °C 1025.7 hPa SE 9.3 km/h 9.7 km/h 84% 0.0 mm 109 W/m2
09:18 7.1 °C 4.4 °C 1025.7 hPa SE 9.3 km/h 9.7 km/h 83% 0.0 mm 88 W/m2
09:24 7.2 °C 4.4 °C 1025.7 hPa ESE 9.3 km/h 9.3 km/h 83% 0.0 mm 83 W/m2
09:29 7.2 °C 4.5 °C 1025.7 hPa SE 9.3 km/h 9.7 km/h 83% 0.0 mm 186 W/m2
09:34 7.3 °C 4.6 °C 1025.7 hPa SE 7.9 km/h 9.7 km/h 83% 0.0 mm 461 W/m2
09:39 7.5 °C 4.7 °C 1025.7 hPa SE 5.6 km/h 9.7 km/h 83% 0.0 mm 392 W/m2
09:44 7.7 °C 5 °C 1025.8 hPa SE 5.6 km/h 5.6 km/h 83% 0.0 mm 431 W/m2
09:49 8 °C 5.2 °C 1025.8 hPa SE 5.6 km/h 5.6 km/h 82.3% 0.0 mm 487 W/m2
09:54 8.3 °C 5.2 °C 1025.8 hPa SE 5.6 km/h 5.6 km/h 81% 0.0 mm 508 W/m2
09:59 8.5 °C 5.4 °C 1025.9 hPa SE 5.6 km/h 5.6 km/h 81% 0.0 mm 513 W/m2
10:04 8.7 °C 5.5 °C 1025.9 hPa South 5.6 km/h 5.6 km/h 80.4% 0.0 mm 513 W/m2
10:09 8.9 °C 5.7 °C 1026.0 hPa South 5.6 km/h 5.6 km/h 80% 0.0 mm 480 W/m2
10:14 9.1 °C 5.8 °C 1026.0 hPa South 5.6 km/h 5.6 km/h 79.4% 0.0 mm 499 W/m2
10:19 9.4 °C 5.9 °C 1026.0 hPa South 5.6 km/h 5.6 km/h 79% 0.0 mm 519 W/m2
10:24 9.6 °C 6.1 °C 1026.1 hPa South 5.6 km/h 5.6 km/h 78.8% 0.0 mm 561 W/m2
10:29 9.9 °C 6.2 °C 1026.1 hPa South 5.6 km/h 5.6 km/h 78% 0.0 mm 585 W/m2
10:34 10.1 °C 6.3 °C 1026.1 hPa South 7 km/h 7.4 km/h 77.5% 0.0 mm 591 W/m2
Refsnesbakken, Moss, Norway
Compliments of Weather Underground - 2 mb